Wednesday, November 14, 2018, 2:12 AM EST
Back to Local

KEWR, Newark International Airport

Location: Elizabeth, NJ, United States Lat: 40.683
Local Time: 2:12 AM EST ( 7:12 GMT) Lon: -74.167
Time Zone: US/Eastern Elev: 16 ft

Show me the last for .
Show Decoded

2018-11-14 01:51 METAR KEWR 140651Z 30013KT 10SM FEW036 FEW050 OVC250 04/M06 A3020 RMK AO2 PK WND
                 28030/0619 SLP226 T00391061 =
2018-11-14 00:51 METAR KEWR 140551Z 31019G24KT 10SM SCT036 OVC050 05/M05 A3017 RMK AO2 SLP216
                 T00501050 10072 20050 53023 =
2018-11-13 23:51 METAR KEWR 140451Z 29010KT 10SM OVC036 06/M01 A3014 RMK AO2 SLP205 T00611011
                 401000061 =
2018-11-13 22:51 METAR KEWR 140351Z 29009KT 10SM FEW030 FEW100 BKN240 06/M02 A3012 RMK AO2 SLP199
                 T00611017 =
2018-11-13 21:51 METAR KEWR 140251Z 30011KT 10SM FEW035 SCT100 BKN240 06/M01 A3010 RMK AO2 SLP193
                 T00611011 53023 =
2018-11-13 20:51 METAR KEWR 140151Z 28010G15KT 10SM FEW035 OVC100 07/00 A3007 RMK AO2 SLP183
                 T00670000 =
2018-11-13 19:51 METAR KEWR 140051Z 31010G19KT 10SM FEW020 BKN036 OVC095 07/00 A3005 RMK AO2
                 SLP176 T00670000 =
2018-11-13 18:51 METAR KEWR 132351Z 30014G20KT 10SM FEW020 OVC095 07/00 A3003 RMK AO2 PK WND
                 29026/2335 SLP170 T00670000 10100 20067 53030 =
2018-11-13 17:51 METAR KEWR 132251Z 30012G21KT 10SM FEW020 OVC090 07/01 A3000 RMK AO2 SLP158
                 T00720011 =
2018-11-13 16:51 METAR KEWR 132151Z 30017G28KT 10SM FEW017 FEW030 OVC090 08/02 A2998 RMK AO2 PK
                 WND 29028/2147 SLP150 T00780017 =
2018-11-13 15:51 METAR KEWR 132051Z 31012G17KT 10SM FEW015 SCT024 OVC095 08/03 A2995 RMK AO2 PK
                 WND 29026/2008 SLP140 T00830033 53025 =
2018-11-13 14:51 METAR KEWR 131951Z 29010G17KT 10SM FEW011 SCT020 BKN110 OVC250 09/04 A2990 RMK
                 AO2 SLP123 T00890039 =
2018-11-13 13:51 METAR KEWR 131851Z 30016G24KT 10SM FEW011 BKN018 OVC110 09/05 A2988 RMK AO2
                 SLP117 BKN V SCT T00940050 =
2018-11-13 13:49 METAR KEWR 131849Z 29016G24KT 10SM FEW011 BKN018 OVC110 09/05 A2987 RMK AO2 BKN
                 V SCT =
2018-11-13 12:56 METAR KEWR 131756Z 32008KT 10SM FEW009 BKN014 OVC045 09/07 A2986 RMK AO2 CIG
                 013V017 T00940067 $ =
2018-11-13 12:51 METAR KEWR 131751Z 32008KT 10SM FEW007 SCT011 OVC029 09/07 A2986 RMK AO2 SLP109
                 60030 T00940067 10094 20072 53003 $ =
2018-11-13 11:51 METAR KEWR 131651Z 35017KT 10SM SCT007 SCT011 OVC025 08/07 A2983 RMK AO2 DZE1556
                 SLP101 P0000 T00830067 $ =
2018-11-13 11:48 METAR KEWR 131648Z 35014KT 10SM SCT007 SCT011 OVC025 08/07 A2983 RMK AO2 DZE1556
                 P0000 $ =
2018-11-13 10:59 METAR KEWR 131559Z 33012G22KT 10SM SCT006 BKN013 OVC021 08/07 A2984 RMK AO2
                 DZE56 SCT V BKN P0000 T00830072 $ =
2018-11-13 10:51 METAR KEWR 131551Z 33015G23KT 6SM -DZ BR BKN006 BKN013 OVC021 08/07 A2984 RMK
                 AO2 SLP106 CIG 004V008 BKN006 V SCT P0002 T00830072 $ =
2018-11-13 09:51 METAR KEWR 131451Z 33013KT 2SM -DZ BR BKN006 OVC010 09/09 A2984 RMK AO2 SFC VIS
                 3 RAE31DZB51 SLP103 CIG 005V008 P0002 60028 T00940089 56038 =
2018-11-13 09:06 METAR KEWR 131406Z 35011KT 2SM -RA BR OVC005 09/08 A2985 RMK AO2 SFC VIS 3 CIG
                 004V007 P0001 T00890083 =
2018-11-13 08:51 METAR KEWR 131351Z 35009KT 2SM -RA BR BKN004 OVC009 09/08 A2986 RMK AO2 SFC VIS
                 2 1/2 SLP110 CIG 003V006 P0010 T00890083 =
2018-11-13 07:51 METAR KEWR 131251Z 02009KT 1 1/2SM -RA BR BKN004 OVC010 07/07 A2989 RMK AO2
                 SLP121 CIG 003V007 P0016 T00720072 $ =
2018-11-13 07:42 METAR KEWR 131242Z 01011KT 1 1/2SM RA BR BKN004 OVC010 07/07 A2990 RMK AO2 CIG
                 003V007 P0015 T00720072 $ =
2018-11-13 07:15 METAR KEWR 131215Z 01013KT 2 1/2SM +RA BR BKN004 OVC015 07/07 A2993 RMK AO2 CIG
                 003V006 P0005 T00720067 $ =
2018-11-13 06:51 METAR KEWR 131151Z 02010KT 5SM RA BR OVC004 07/07 A2995 RMK AO2 SLP141 CIG
                 003V005 P0015 60056 70066 T00720072 10072 20061 58047 $ =
2018-11-13 06:49 METAR KEWR 131149Z 01011KT 5SM RA BR OVC004 07/07 A2995 RMK AO2 CIG 003V005
                 P0014 $ =
2018-11-13 05:51 METAR KEWR 131051Z 02009KT 3SM -RA BR OVC006 07/07 A3001 RMK AO2 SFC VIS 4
                 SLP160 P0012 T00720067 $ =
2018-11-13 05:39 METAR KEWR 131039Z 02008KT 3SM RA BR OVC005 07/07 A3002 RMK AO2 PRESFR P0012
                 T00720067 $ =
2018-11-13 04:51 METAR KEWR 130951Z 35005KT 3SM RA BR OVC004 07/07 A3005 RMK AO2 SLP175 P0009
                 T00670067 $ =
2018-11-13 03:51 METAR KEWR 130851Z 02009KT 2 1/2SM RA BR OVC004 07/06 A3009 RMK AO2 SLP188 P0006
                 60020 T00670061 58047 $ =
2018-11-13 03:44 METAR KEWR 130844Z 01008KT 2 1/2SM -RA BR OVC004 07/07 A3009 RMK AO2 P0004
                 T00670067 $ =
2018-11-13 03:01 METAR KEWR 130801Z 01008KT 4SM -RA BR OVC004 07/06 A3014 RMK AO2 PRESFR
                 T00670061 PNO $ =
2018-11-13 02:51 METAR KEWR 130751Z 01006KT 4SM -RA BR BKN008 OVC025 07/06 A3015 RMK AO2 SLP210
                 P0009 T00670061 $ =
2018-11-13 02:31 METAR KEWR 130731Z 01007KT 4SM -RA BR BKN008 OVC025 07/06 A3017 RMK AO2 P0005
                 T00670061 $ =

Support USWX by starting your Amazon purchase here.